You are listening to:
LTBA Gnd/Twr/App - Istanbul, Turkey

LTBA 262150Z 16004KT 9999 FEW035 BKN090 14/08 Q1001 NOSIG

If stream doesn't start automatically press the play button
If stream stops then reload player then press play